Impacts TAF Board INFO
FOR SITUATIONAL AWARENESS. NOT TO BE USED FOR FLIGHT PLANNING PURPOSES.
IDs:

KIAH - Houston/Bush Intl, TX, US

Issued at 1726 UTC 25 Apr 2018
Updated at 2022 UTC 25 Apr 2018
Potential Impact None Slight Moderate High
Time<<26/21Z 26/22Z 26/23Z 27/00Z 27/01Z 27/02Z 27/03Z 27/04Z 27/05Z 27/06Z 27/07Z 27/08Z 27/09Z
Type PRVL PRVL PRVL
VIS >6 >6 >6
CIG -- -- --
Cover FEW FEW FEW
FltCat VFR VFR VFR
WX -- -- --
WDir 340 340 340
WSpd 11 11 11
WGst -- -- --

Raw TAF
KIAH 251726Z 2518/2624 VRB06KT P6SM SCT040
  FM252300 34008KT P6SM BKN060
  FM260200 35011KT P6SM VCSH SCT025 BKN050
  TEMPO 2602/2604 SHRA
  FM260700 34007KT P6SM BKN050
  FM261400 34011KT P6SM FEW250


METAR Board
Radar Display
Forecast Discussion

FOR SITUATIONAL AWARENESS. NOT TO BE USED FOR FLIGHT PLANNING PURPOSES.